createdAt,value
2023-01-18T00:00:47.576Z,93.44
2023-01-18T00:03:14.537Z,93.20
2023-01-18T00:05:42.292Z,93.07
2023-01-18T00:08:09.592Z,92.60
2023-01-18T00:10:36.437Z,92.32
2023-01-18T00:13:04.044Z,92.22
2023-01-18T00:15:34.828Z,92.83
2023-01-18T00:18:02.035Z,93.33
2023-01-18T00:20:30.279Z,92.95
2023-01-18T00:22:59.428Z,92.18
2023-01-18T00:25:26.200Z,92.23
2023-01-18T00:27:54.439Z,92.69
2023-01-18T00:30:24.688Z,92.58
2023-01-18T00:32:57.948Z,93.02
2023-01-18T00:35:26.103Z,92.57
2023-01-18T00:37:54.059Z,94.05
2023-01-18T00:40:22.322Z,93.47
2023-01-18T00:43:07.440Z,93.23
2023-01-18T00:45:34.288Z,93.53
2023-01-18T00:48:02.849Z,93.85
2023-01-18T00:50:29.781Z,93.75
2023-01-18T00:52:58.880Z,92.60
2023-01-18T00:55:26.679Z,92.95
2023-01-18T00:57:53.603Z,92.67
2023-01-18T01:00:24.370Z,93.29
2023-01-18T01:02:51.850Z,93.53
2023-01-18T01:05:42.508Z,93.23
2023-01-18T01:08:17.076Z,92.65
2023-01-18T01:10:46.590Z,92.99
2023-01-18T01:13:37.786Z,92.53
2023-01-18T01:16:27.894Z,92.43
2023-01-18T01:19:13.457Z,92.72
2023-01-18T01:22:00.394Z,92.89
2023-01-18T01:24:45.855Z,92.72
2023-01-18T01:27:14.043Z,92.28
2023-01-18T01:29:40.966Z,93.29
2023-01-18T01:32:07.716Z,93.46
2023-01-18T01:34:34.405Z,93.80
2023-01-18T01:37:01.020Z,93.92
2023-01-18T01:39:28.136Z,94.26
2023-01-18T01:41:54.815Z,93.63
2023-01-18T01:44:21.381Z,94.03
2023-01-18T01:46:52.693Z,93.94
2023-01-18T01:49:43.025Z,93.88
2023-01-18T01:52:13.626Z,93.87
2023-01-18T01:54:42.917Z,93.47
2023-01-18T02:10:20.524Z,92.58
2023-01-18T02:12:50.138Z,93.82
2023-01-18T02:15:18.597Z,92.58
2023-01-18T02:18:15.796Z,92.92
2023-01-18T02:21:17.503Z,93.32
2023-01-18T02:26:58.844Z,93.95
2023-01-18T02:29:49.378Z,95.02
2023-01-18T02:32:37.209Z,94.62
2023-01-18T02:35:11.880Z,94.29
2023-01-18T02:38:01.773Z,94.63
2023-01-18T02:40:47.618Z,94.29
2023-01-18T02:43:37.733Z,94.77
2023-01-18T02:46:24.974Z,93.72
2023-01-18T02:48:51.871Z,93.84
2023-01-18T02:51:18.480Z,94.64
2023-01-18T02:53:46.184Z,94.31
2023-01-18T02:56:31.900Z,94.29
2023-01-18T03:02:26.506Z,95.34
2023-01-18T03:04:55.006Z,95.21
2023-01-18T03:07:28.803Z,94.30
2023-01-18T03:12:57.880Z,94.36
2023-01-18T03:15:48.579Z,94.11
2023-01-18T03:18:26.095Z,95.12
2023-01-18T03:20:55.940Z,95.49
2023-01-18T03:23:38.274Z,93.57
2023-01-18T03:26:11.126Z,94.38
2023-01-18T03:29:00.065Z,94.97
2023-01-18T03:32:03.595Z,94.23
2023-01-18T03:34:35.776Z,93.72
2023-01-18T03:39:46.525Z,94.93
2023-01-18T03:42:18.650Z,93.41
2023-01-18T03:44:53.180Z,94.39
2023-01-18T03:47:20.590Z,95.11
2023-01-18T03:49:47.353Z,94.99
2023-01-18T03:52:37.773Z,94.65
2023-01-18T03:55:08.795Z,94.11
2023-01-18T03:57:43.966Z,94.60
2023-01-18T04:00:11.788Z,94.85
2023-01-18T04:02:38.563Z,93.77
2023-01-18T04:05:07.167Z,94.19
2023-01-18T04:07:33.905Z,94.52
2023-01-18T04:10:01.035Z,94.62
2023-01-18T04:12:28.040Z,94.23
2023-01-18T04:14:54.637Z,94.86
2023-01-18T04:17:21.284Z,94.08
2023-01-18T04:19:47.884Z,94.28
2023-01-18T04:22:14.818Z,94.55
2023-01-18T04:24:41.358Z,93.98
2023-01-18T04:27:07.932Z,94.95
2023-01-18T04:29:34.470Z,93.86
2023-01-18T04:32:01.253Z,93.61
2023-01-18T04:34:27.867Z,93.71
2023-01-18T04:36:54.477Z,93.19
2023-01-18T04:39:21.076Z,93.93
2023-01-18T04:44:18.922Z,94.23
2023-01-18T04:46:45.524Z,94.43
2023-01-18T04:49:15.731Z,93.60
2023-01-18T04:51:44.038Z,93.33
2023-01-18T04:54:12.000Z,94.37
2023-01-18T04:56:38.745Z,93.96
2023-01-18T04:59:05.448Z,93.73
2023-01-18T05:01:32.608Z,93.07
2023-01-18T05:03:59.469Z,92.63
2023-01-18T05:06:26.115Z,93.00
2023-01-18T05:08:52.730Z,93.85
2023-01-18T05:11:21.283Z,94.68
2023-01-18T05:13:47.970Z,93.62
2023-01-18T05:16:17.382Z,94.88
2023-01-18T05:18:44.872Z,95.18
2023-01-18T05:23:43.918Z,94.37
2023-01-18T05:26:16.855Z,94.89
2023-01-18T05:28:44.779Z,94.92
2023-01-18T05:31:12.169Z,94.67
2023-01-18T05:33:39.152Z,93.58
2023-01-18T05:36:06.157Z,94.46
2023-01-18T05:38:32.810Z,93.34
2023-01-18T05:40:59.383Z,93.62
2023-01-18T05:46:05.598Z,95.30
2023-01-18T05:48:32.263Z,94.86
2023-01-18T05:53:32.119Z,95.73
2023-01-18T05:56:01.421Z,95.67
2023-01-18T06:01:02.517Z,94.94
2023-01-18T06:03:29.183Z,94.45
2023-01-18T06:05:55.916Z,94.94
2023-01-18T06:08:22.554Z,94.36
2023-01-18T06:10:53.469Z,95.50
2023-01-18T06:13:20.866Z,95.15
2023-01-18T06:15:49.599Z,95.16
2023-01-18T06:18:16.416Z,94.98
2023-01-18T06:23:21.239Z,96.02
2023-01-18T06:25:47.827Z,96.28
2023-01-18T06:28:14.562Z,95.29
2023-01-18T06:33:22.176Z,95.82
2023-01-18T06:35:48.822Z,96.36
2023-01-18T06:38:15.399Z,95.98
2023-01-18T06:40:41.960Z,95.68
2023-01-18T06:43:10.377Z,95.45
2023-01-18T06:45:37.148Z,96.21
2023-01-18T06:48:04.788Z,96.79
2023-01-18T06:50:31.397Z,96.39
2023-01-18T06:52:58.433Z,96.41
2023-01-18T06:55:25.299Z,96.15
2023-01-18T06:57:51.873Z,95.60
2023-01-18T07:00:18.853Z,95.47
2023-01-18T07:02:45.442Z,95.73
2023-01-18T07:05:12.031Z,95.38
2023-01-18T07:07:38.594Z,95.65
2023-01-18T07:12:43.680Z,96.63
2023-01-18T07:15:21.075Z,96.67
2023-01-18T07:17:50.659Z,96.90
2023-01-18T07:20:17.833Z,96.69
2023-01-18T07:22:44.481Z,96.70
2023-01-18T07:25:13.705Z,97.05
2023-01-18T07:27:43.339Z,97.16
2023-01-18T07:30:13.328Z,96.49
2023-01-18T07:32:44.931Z,97.21
2023-01-18T07:35:11.450Z,97.56
2023-01-18T07:37:38.741Z,97.49
2023-01-18T07:40:06.007Z,97.26
2023-01-18T07:42:32.574Z,97.15
2023-01-18T07:44:59.143Z,96.82
2023-01-18T07:47:25.737Z,97.74
2023-01-18T07:49:52.259Z,97.21
2023-01-18T07:52:18.798Z,96.40
2023-01-18T07:59:55.590Z,96.46
2023-01-18T08:02:22.326Z,95.94
2023-01-18T08:04:52.295Z,96.40
2023-01-18T08:07:18.948Z,95.84
2023-01-18T08:09:45.585Z,96.47
2023-01-18T08:12:18.180Z,96.08
2023-01-18T08:14:46.061Z,96.57
2023-01-18T08:17:12.759Z,97.18
2023-01-18T08:19:39.441Z,96.72
2023-01-18T08:22:07.418Z,96.46
2023-01-18T08:24:34.045Z,96.68
2023-01-18T08:27:00.620Z,96.38
2023-01-18T08:29:27.210Z,95.71
2023-01-18T08:31:54.418Z,95.61
2023-01-18T08:34:21.976Z,95.70
2023-01-18T08:36:48.572Z,96.13
2023-01-18T08:39:15.215Z,94.99
2023-01-18T08:41:42.062Z,95.23
2023-01-18T08:44:08.567Z,95.63
2023-01-18T08:46:36.530Z,95.90
2023-01-18T08:49:05.840Z,95.92
2023-01-18T08:51:32.789Z,95.58
2023-01-18T08:53:59.984Z,95.68
2023-01-18T08:56:26.960Z,95.10
2023-01-18T08:58:53.741Z,95.42
2023-01-18T09:01:23.354Z,96.02
2023-01-18T09:03:53.197Z,95.69
2023-01-18T09:06:19.771Z,95.05
2023-01-18T09:08:49.415Z,95.20
2023-01-18T09:11:17.152Z,94.52
2023-01-18T09:13:59.433Z,96.02
2023-01-18T09:16:26.818Z,95.98
2023-01-18T09:18:55.478Z,95.47
2023-01-18T09:21:22.338Z,94.55
2023-01-18T09:23:49.625Z,94.97
2023-01-18T09:26:18.416Z,95.77
2023-01-18T09:31:20.728Z,96.90
2023-01-18T09:33:53.265Z,96.00
2023-01-18T09:36:24.061Z,95.18
2023-01-18T09:38:50.703Z,94.80
2023-01-18T09:44:27.155Z,93.75
2023-01-18T09:46:58.326Z,94.48
2023-01-18T09:52:54.809Z,94.93
2023-01-18T09:55:52.012Z,94.13
2023-01-18T09:58:44.659Z,94.83
2023-01-18T10:01:18.485Z,95.19
2023-01-18T10:03:53.679Z,94.77
2023-01-18T10:06:31.081Z,94.88
2023-01-18T10:09:04.532Z,95.24
2023-01-18T10:11:48.245Z,95.85
2023-01-18T10:14:29.952Z,95.20
2023-01-18T10:17:01.988Z,94.86
2023-01-18T10:22:14.222Z,94.38
2023-01-18T10:25:03.243Z,94.02
2023-01-18T10:27:40.726Z,94.14
2023-01-18T10:30:31.128Z,93.68
2023-01-18T10:33:11.062Z,93.32
2023-01-18T10:35:45.390Z,94.35
2023-01-18T10:38:16.269Z,95.00
2023-01-18T10:40:46.766Z,93.51
2023-01-18T10:43:20.499Z,94.61
2023-01-18T10:45:47.115Z,94.65
2023-01-18T10:48:30.429Z,94.31
2023-01-18T10:51:02.763Z,94.43
2023-01-18T10:53:37.267Z,94.53
2023-01-18T10:56:09.884Z,95.14
2023-01-18T10:58:52.274Z,94.26
2023-01-18T11:01:28.832Z,93.94
2023-01-18T11:04:06.061Z,94.67
2023-01-18T11:06:54.835Z,94.97
2023-01-18T11:09:48.747Z,94.48
2023-01-18T11:12:41.341Z,94.14
2023-01-18T11:15:13.606Z,93.11
2023-01-18T11:17:44.685Z,93.06
2023-01-18T11:20:34.314Z,91.08
2023-01-18T11:23:04.914Z,92.47
2023-01-18T11:25:40.625Z,92.57
2023-01-18T11:28:20.711Z,92.68
2023-01-18T11:30:54.249Z,93.29
2023-01-18T11:33:23.080Z,92.61
2023-01-18T11:35:55.078Z,92.03
2023-01-18T11:41:23.632Z,91.92
2023-01-18T11:43:53.221Z,92.19
2023-01-18T11:46:31.154Z,91.64
2023-01-18T11:49:08.846Z,92.27
2023-01-18T11:51:45.956Z,93.61
2023-01-18T11:54:29.187Z,92.27
2023-01-18T11:57:02.383Z,91.90
2023-01-18T11:59:30.584Z,91.56
2023-01-18T12:02:12.425Z,91.98
2023-01-18T12:04:56.736Z,91.69
2023-01-18T12:07:48.315Z,92.25
2023-01-18T12:10:23.670Z,92.54
2023-01-18T12:13:05.270Z,91.57
2023-01-18T12:16:01.268Z,90.73
2023-01-18T12:19:02.847Z,91.81
2023-01-18T12:22:01.016Z,91.74
2023-01-18T12:25:04.813Z,90.95
2023-01-18T12:33:42.320Z,91.81
2023-01-18T12:36:47.056Z,91.85
2023-01-18T12:39:25.734Z,91.55
2023-01-18T12:42:05.450Z,92.61
2023-01-18T12:45:03.095Z,91.76
2023-01-18T12:47:35.551Z,91.00
2023-01-18T12:50:27.705Z,90.71
2023-01-18T12:53:00.649Z,91.16
2023-01-18T12:55:31.758Z,90.68
2023-01-18T12:58:01.359Z,91.24
2023-01-18T13:00:37.270Z,88.86
2023-01-18T13:03:13.708Z,89.60
2023-01-18T13:05:55.609Z,88.90
2023-01-18T13:08:26.786Z,89.15
2023-01-18T13:11:01.559Z,89.26
2023-01-18T13:13:29.457Z,89.40
2023-01-18T13:16:19.417Z,89.42
2023-01-18T13:19:05.293Z,89.16
2023-01-18T13:21:40.725Z,88.80
2023-01-18T13:24:16.120Z,88.91
2023-01-18T13:26:43.272Z,89.09
2023-01-18T13:29:10.347Z,89.76
2023-01-18T13:31:37.991Z,89.77
2023-01-18T13:34:04.817Z,87.79
2023-01-18T13:36:47.072Z,87.56
2023-01-18T13:39:16.695Z,87.16
2023-01-18T13:44:45.763Z,87.95
2023-01-18T13:47:44.034Z,87.66
2023-01-18T13:50:28.736Z,88.80
2023-01-18T13:53:13.722Z,89.52
2023-01-18T13:55:47.457Z,89.17
2023-01-18T13:58:20.580Z,89.10
2023-01-18T14:00:48.641Z,88.12
2023-01-18T14:03:20.414Z,88.32
2023-01-18T14:05:48.940Z,88.36
2023-01-18T14:08:25.109Z,88.86
2023-01-18T14:10:57.515Z,88.11
2023-01-18T14:13:45.909Z,89.29
2023-01-18T14:16:18.573Z,88.67
2023-01-18T14:19:24.201Z,88.05
2023-01-18T14:22:08.509Z,88.13
2023-01-18T14:24:41.452Z,87.64
2023-01-18T14:27:16.838Z,86.76
2023-01-18T14:29:50.339Z,88.04
2023-01-18T14:32:24.007Z,88.29
2023-01-18T14:35:00.928Z,87.58
2023-01-18T14:37:31.634Z,88.81
2023-01-18T14:40:13.723Z,88.86
2023-01-18T14:42:47.461Z,88.67
2023-01-18T14:45:29.202Z,88.12
2023-01-18T14:47:59.255Z,87.82
2023-01-18T14:50:28.071Z,88.34
2023-01-18T14:52:54.903Z,88.31
2023-01-18T14:55:27.436Z,87.53
2023-01-18T14:58:02.782Z,87.83
2023-01-18T15:00:29.639Z,88.36
2023-01-18T15:02:57.019Z,87.85
2023-01-18T15:05:29.052Z,88.66
2023-01-18T15:07:56.106Z,88.51
2023-01-18T15:10:24.324Z,88.66
2023-01-18T15:12:55.323Z,88.43
2023-01-18T15:18:20.900Z,88.94
2023-01-18T15:21:06.413Z,89.27
2023-01-18T15:23:36.731Z,88.73
2023-01-18T15:26:03.688Z,89.65
2023-01-18T15:28:34.064Z,89.70
2023-01-18T15:31:06.790Z,89.71
2023-01-18T15:33:35.449Z,89.92
2023-01-18T15:36:02.228Z,90.04
2023-01-18T15:38:29.152Z,89.43
2023-01-18T15:41:05.909Z,89.25
2023-01-18T15:43:39.342Z,88.89
2023-01-18T15:46:10.791Z,89.24
2023-01-18T15:48:47.571Z,88.23
2023-01-18T15:51:14.474Z,88.57
2023-01-18T15:53:56.253Z,89.06
2023-01-18T15:56:26.890Z,88.67
2023-01-18T15:58:58.160Z,88.78
2023-01-18T16:01:29.358Z,88.14
2023-01-18T16:04:08.835Z,88.97
2023-01-18T16:06:37.600Z,89.02
2023-01-18T16:09:13.261Z,88.74
2023-01-18T16:11:51.966Z,88.53
2023-01-18T16:14:25.577Z,88.28
2023-01-18T16:19:36.635Z,89.14
2023-01-18T16:22:06.203Z,89.03
2023-01-18T16:24:38.001Z,88.84
2023-01-18T16:27:11.363Z,88.33
2023-01-18T16:29:46.939Z,87.16
2023-01-18T16:32:30.148Z,87.79
2023-01-18T16:35:18.039Z,87.26
2023-01-18T16:40:23.560Z,87.43
2023-01-18T16:43:07.559Z,87.92
2023-01-18T16:45:37.292Z,87.68
2023-01-18T16:53:09.474Z,88.43
2023-01-18T16:55:37.117Z,88.35
2023-01-18T16:58:03.783Z,87.69
2023-01-18T17:01:00.418Z,87.58
2023-01-18T17:03:27.791Z,86.97
2023-01-18T17:05:54.466Z,86.97
2023-01-18T17:08:21.196Z,87.51
2023-01-18T17:10:50.122Z,87.25
2023-01-18T17:13:17.458Z,87.81
2023-01-18T17:15:45.675Z,88.07
2023-01-18T17:18:21.751Z,88.55
2023-01-18T17:20:48.677Z,87.47
2023-01-18T17:23:15.714Z,87.29
2023-01-18T17:25:43.758Z,88.07
2023-01-18T17:28:17.880Z,87.46
2023-01-18T17:30:46.720Z,87.26
2023-01-18T17:33:19.650Z,88.15
2023-01-18T17:35:47.547Z,88.21
2023-01-18T17:38:23.188Z,88.71
2023-01-18T17:40:50.691Z,89.10
2023-01-18T17:43:28.395Z,89.59
2023-01-18T17:46:01.884Z,89.73
2023-01-18T17:48:29.169Z,90.37
2023-01-18T17:50:55.926Z,90.15
2023-01-18T17:53:22.525Z,89.82
2023-01-18T17:58:20.771Z,89.77
2023-01-18T18:00:47.460Z,90.44
2023-01-18T18:03:14.166Z,90.28
2023-01-18T18:05:40.752Z,91.04
2023-01-18T18:08:07.878Z,91.13
2023-01-18T18:10:34.485Z,90.70
2023-01-18T18:13:01.542Z,90.27
2023-01-18T18:15:28.424Z,89.71
2023-01-18T18:17:54.973Z,89.83
2023-01-18T18:20:22.775Z,89.90
2023-01-18T18:22:49.474Z,88.96
2023-01-18T18:25:16.363Z,89.75
2023-01-18T18:27:47.172Z,89.55
2023-01-18T18:30:14.924Z,89.43
2023-01-18T18:32:41.621Z,89.30
2023-01-18T18:35:23.971Z,88.76
2023-01-18T18:37:51.723Z,88.46
2023-01-18T18:40:19.080Z,88.54
2023-01-18T18:42:59.916Z,88.41
2023-01-18T18:45:28.141Z,89.03
2023-01-18T18:47:54.747Z,89.05
2023-01-18T18:50:21.412Z,88.86
2023-01-18T18:52:48.096Z,89.07
2023-01-18T18:55:14.966Z,88.83
2023-01-18T18:57:41.566Z,88.51
2023-01-18T19:00:08.833Z,88.52
2023-01-18T19:02:35.805Z,88.65
2023-01-18T19:05:02.879Z,89.12
2023-01-18T19:10:07.394Z,90.26
2023-01-18T19:12:34.140Z,89.59
2023-01-18T19:15:01.054Z,88.70
2023-01-18T19:17:31.502Z,88.04
2023-01-18T19:19:58.543Z,88.33
2023-01-18T19:22:25.156Z,86.81
2023-01-18T19:24:51.771Z,86.48
2023-01-18T19:27:18.462Z,86.55
2023-01-18T19:29:45.127Z,86.40
2023-01-18T19:32:11.713Z,86.51
2023-01-18T19:34:38.689Z,86.64
2023-01-18T19:37:05.770Z,85.96
2023-01-18T19:39:34.964Z,86.25
2023-01-18T19:42:02.171Z,85.43
2023-01-18T19:44:28.938Z,85.30
2023-01-18T19:46:57.201Z,86.27
2023-01-18T19:49:26.518Z,84.91
2023-01-18T19:51:54.744Z,84.48
2023-01-18T19:54:22.177Z,84.77
2023-01-18T19:56:48.998Z,86.07
2023-01-18T19:59:16.054Z,87.05
2023-01-18T20:01:42.907Z,86.64
2023-01-18T20:04:09.776Z,86.26
2023-01-18T20:06:38.655Z,85.65
2023-01-18T20:09:17.821Z,85.52
2023-01-18T20:11:44.974Z,85.90
2023-01-18T20:14:12.269Z,86.36
2023-01-18T20:16:39.307Z,86.60
2023-01-18T20:19:06.044Z,86.63
2023-01-18T20:21:32.589Z,86.15
2023-01-18T20:23:59.360Z,86.53
2023-01-18T20:26:35.877Z,86.04
2023-01-18T20:29:07.346Z,86.88
2023-01-18T20:31:36.448Z,87.58
2023-01-18T20:34:03.710Z,87.00
2023-01-18T20:36:30.534Z,86.16
2023-01-18T20:38:57.330Z,84.23
2023-01-18T20:41:23.911Z,84.28
2023-01-18T20:43:50.425Z,85.18
2023-01-18T20:46:17.071Z,84.97
2023-01-18T20:48:43.712Z,84.68
2023-01-18T20:51:10.334Z,84.47
2023-01-18T20:56:27.811Z,83.37
2023-01-18T20:58:55.291Z,82.13
2023-01-18T21:01:22.104Z,82.54
2023-01-18T21:03:54.609Z,81.98
2023-01-18T21:06:21.557Z,82.84
2023-01-18T21:08:52.828Z,81.71
2023-01-18T21:11:23.018Z,83.00
2023-01-18T21:13:51.393Z,82.88
2023-01-18T21:16:18.355Z,81.83
2023-01-18T21:18:45.010Z,82.55
2023-01-18T21:23:43.050Z,83.67
2023-01-18T21:26:12.157Z,83.40
2023-01-18T21:28:38.796Z,82.86
2023-01-18T21:31:06.864Z,83.10
2023-01-18T21:33:34.397Z,82.62
2023-01-18T21:38:41.881Z,82.20
2023-01-18T21:44:17.145Z,83.31
2023-01-18T21:46:47.876Z,83.07
2023-01-18T21:49:47.233Z,83.77
2023-01-18T21:52:38.452Z,84.09
2023-01-18T21:55:05.395Z,82.73
2023-01-18T21:57:32.012Z,83.53
2023-01-18T21:59:58.606Z,83.21
2023-01-18T22:02:25.296Z,83.00
2023-01-18T22:05:01.055Z,82.77
2023-01-18T22:07:28.414Z,82.33
2023-01-18T22:10:03.847Z,81.95
2023-01-18T22:12:32.772Z,81.04
2023-01-18T22:15:01.601Z,81.96
2023-01-18T22:17:28.308Z,82.04
2023-01-18T22:19:54.898Z,80.21
2023-01-18T22:22:21.466Z,79.35
2023-01-18T22:24:48.123Z,77.98
2023-01-18T22:27:14.705Z,78.39
2023-01-18T22:29:41.295Z,78.38
2023-01-18T22:32:07.847Z,79.45
2023-01-18T22:34:34.595Z,80.68
2023-01-18T22:37:01.172Z,79.94
2023-01-18T22:39:27.699Z,79.85
2023-01-18T22:41:54.287Z,78.05
2023-01-18T22:44:20.933Z,78.71
2023-01-18T22:46:47.523Z,78.85
2023-01-18T22:49:14.120Z,79.77
2023-01-18T22:51:40.734Z,80.84
2023-01-18T22:54:07.513Z,81.90
2023-01-18T22:56:34.451Z,82.10
2023-01-18T22:59:01.173Z,81.58
2023-01-18T23:01:32.581Z,80.55
2023-01-18T23:04:02.174Z,80.82
2023-01-18T23:06:33.880Z,80.75
2023-01-18T23:09:00.482Z,80.30
2023-01-18T23:11:29.997Z,78.88
2023-01-18T23:14:27.318Z,79.31
2023-01-18T23:17:12.736Z,78.07
2023-01-18T23:19:39.369Z,80.50
2023-01-18T23:22:07.308Z,80.54
2023-01-18T23:24:35.839Z,78.99
2023-01-18T23:27:03.437Z,79.09
2023-01-18T23:29:30.321Z,79.54
2023-01-18T23:31:57.482Z,79.12
2023-01-18T23:34:25.025Z,78.52
2023-01-18T23:36:51.621Z,78.98
2023-01-18T23:39:36.740Z,79.83
2023-01-18T23:42:21.856Z,79.66
2023-01-18T23:45:06.823Z,79.19
2023-01-18T23:47:52.039Z,79.49
2023-01-18T23:50:37.002Z,79.92
2023-01-18T23:53:22.141Z,79.63
2023-01-18T23:55:52.618Z,79.34
2023-01-18T23:58:19.225Z,79.34
